createdAt,value
2022-08-27T00:00:04.332Z,46.45
2022-08-27T00:03:12.804Z,45.42
2022-08-27T00:06:18.501Z,39.60
2022-08-27T00:09:27.135Z,35.90
2022-08-27T00:12:33.093Z,43.15
2022-08-27T00:15:38.332Z,39.30
2022-08-27T00:18:48.148Z,33.55
2022-08-27T00:21:53.664Z,34.80
2022-08-27T00:24:58.811Z,40.75
2022-08-27T00:28:03.968Z,42.45
2022-08-27T00:31:12.452Z,35.53
2022-08-27T00:34:20.607Z,40.15
2022-08-27T00:37:25.762Z,37.45
2022-08-27T00:40:31.265Z,40.45
2022-08-27T00:43:46.792Z,33.95
2022-08-27T00:46:53.422Z,35.53
2022-08-27T00:50:02.100Z,35.58
2022-08-27T00:53:10.694Z,35.63
2022-08-27T00:56:18.373Z,38.50
2022-08-27T00:59:25.120Z,34.83
2022-08-27T01:02:31.084Z,34.58
2022-08-27T01:05:39.867Z,38.08
2022-08-27T01:08:47.266Z,38.40
2022-08-27T01:11:53.185Z,33.58
2022-08-27T01:14:58.916Z,42.90
2022-08-27T01:18:05.927Z,37.45
2022-08-27T01:21:17.435Z,34.10
2022-08-27T01:24:30.700Z,43.55
2022-08-27T01:27:36.103Z,40.70
2022-08-27T01:30:42.573Z,35.72
2022-08-27T01:33:57.018Z,39.75
2022-08-27T01:37:02.105Z,39.13
2022-08-27T01:40:13.638Z,38.85
2022-08-27T01:43:21.472Z,39.05
2022-08-27T01:46:28.004Z,43.30
2022-08-27T01:49:33.178Z,34.15
2022-08-27T01:52:38.601Z,36.53
2022-08-27T01:55:48.284Z,37.85
2022-08-27T01:58:53.752Z,37.15
2022-08-27T02:01:59.302Z,38.67
2022-08-27T02:05:04.764Z,37.90
2022-08-27T02:08:10.459Z,39.70
2022-08-27T02:11:18.221Z,43.90
2022-08-27T02:14:23.439Z,37.60
2022-08-27T02:17:29.032Z,42.67
2022-08-27T02:20:34.556Z,32.85
2022-08-27T02:23:40.116Z,39.15
2022-08-27T02:26:48.026Z,40.35
2022-08-27T02:29:53.445Z,42.78
2022-08-27T02:32:58.873Z,39.03
2022-08-27T02:36:03.903Z,40.75
2022-08-27T02:39:11.407Z,37.42
2022-08-27T02:42:19.430Z,39.08
2022-08-27T02:45:24.709Z,40.05
2022-08-27T02:48:29.766Z,39.75
2022-08-27T02:51:35.061Z,40.38
2022-08-27T02:54:40.504Z,39.33
2022-08-27T02:57:48.722Z,38.10
2022-08-27T03:00:54.331Z,41.22
2022-08-27T03:03:59.732Z,33.25
2022-08-27T03:07:05.212Z,35.50
2022-08-27T03:10:11.525Z,36.47
2022-08-27T03:13:19.424Z,39.05
2022-08-27T03:16:24.531Z,43.63
2022-08-27T03:19:27.687Z,41.78
2022-08-27T03:22:33.010Z,44.50
2022-08-27T03:25:38.389Z,40.78
2022-08-27T03:28:47.110Z,37.38
2022-08-27T03:31:52.384Z,37.65
2022-08-27T03:34:59.958Z,47.88
2022-08-27T03:38:04.990Z,42.33
2022-08-27T03:41:10.441Z,46.83
2022-08-27T03:44:21.319Z,51.42
2022-08-27T03:47:26.917Z,45.45
2022-08-27T03:50:32.110Z,48.13
2022-08-27T03:53:37.547Z,49.65
2022-08-27T03:56:42.659Z,49.08
2022-08-27T03:59:54.311Z,51.90
2022-08-27T04:02:59.849Z,44.50
2022-08-27T04:06:05.291Z,52.33
2022-08-27T04:09:10.385Z,57.17
2022-08-27T04:12:15.637Z,46.25
2022-08-27T04:15:23.511Z,49.20
2022-08-27T04:18:28.821Z,53.58
2022-08-27T04:21:34.254Z,51.17
2022-08-27T04:24:41.152Z,55.92
2022-08-27T04:27:47.208Z,55.33
2022-08-27T04:30:54.881Z,53.13
2022-08-27T04:34:00.157Z,59.10
2022-08-27T04:37:06.228Z,60.63
2022-08-27T04:40:12.326Z,52.53
2022-08-27T04:43:17.871Z,56.78
2022-08-27T04:46:28.400Z,70.38
2022-08-27T04:49:34.205Z,53.38
2022-08-27T04:52:40.796Z,54.15
2022-08-27T04:55:46.754Z,57.63
2022-08-27T04:58:52.476Z,61.08
2022-08-27T05:02:00.287Z,67.10
2022-08-27T05:05:14.211Z,61.13
2022-08-27T05:08:21.197Z,64.70
2022-08-27T05:11:27.431Z,67.10
2022-08-27T05:14:33.132Z,64.30
2022-08-27T05:17:40.892Z,63.38
2022-08-27T05:20:47.460Z,70.65
2022-08-27T05:23:52.619Z,73.88
2022-08-27T05:26:57.804Z,64.90
2022-08-27T05:30:03.155Z,62.55
2022-08-27T05:33:11.404Z,67.28
2022-08-27T05:36:23.882Z,72.93
2022-08-27T05:39:29.440Z,71.43
2022-08-27T05:42:35.213Z,72.60
2022-08-27T05:45:43.154Z,67.05
2022-08-27T05:48:51.616Z,61.10
2022-08-27T05:51:56.976Z,53.08
2022-08-27T05:55:02.212Z,57.08
2022-08-27T05:58:08.562Z,54.42
2022-08-27T06:01:11.667Z,63.33
2022-08-27T06:04:20.676Z,63.90
2022-08-27T06:07:26.326Z,62.35
2022-08-27T06:10:31.464Z,73.50
2022-08-27T06:13:37.716Z,60.15
2022-08-27T06:16:44.310Z,62.88
2022-08-27T06:19:52.261Z,54.42
2022-08-27T06:22:57.559Z,61.92
2022-08-27T06:26:03.180Z,61.63
2022-08-27T06:29:08.480Z,61.13
2022-08-27T06:32:14.989Z,56.05
2022-08-27T06:35:23.188Z,62.33
2022-08-27T06:41:33.444Z,58.00
2022-08-27T06:44:38.873Z,59.30
2022-08-27T06:47:43.943Z,65.57
2022-08-27T06:50:51.776Z,55.28
2022-08-27T06:57:02.588Z,40.58
2022-08-27T07:00:08.766Z,38.47
2022-08-27T07:03:14.468Z,54.22
2022-08-27T07:06:22.892Z,38.47
2022-08-27T07:09:27.989Z,36.22
2022-08-27T07:12:33.341Z,29.40
2022-08-27T07:15:42.077Z,48.65
2022-08-27T07:18:47.314Z,78.50
2022-08-27T07:21:56.421Z,72.35
2022-08-27T07:28:08.863Z,56.10
2022-08-27T07:31:17.403Z,56.10
2022-08-27T07:34:22.687Z,53.42
2022-08-27T07:37:35.224Z,45.42
2022-08-27T07:40:40.605Z,54.75
2022-08-27T07:43:58.511Z,78.93
2022-08-27T07:47:03.764Z,76.85
2022-08-27T07:50:09.800Z,70.88
2022-08-27T07:53:17.460Z,69.72
2022-08-27T07:59:27.907Z,50.35
2022-08-27T08:02:35.336Z,45.97
2022-08-27T08:05:44.238Z,64.85
2022-08-27T08:08:52.592Z,54.88
2022-08-27T08:11:57.970Z,51.40
2022-08-27T08:15:03.258Z,55.85
2022-08-27T08:18:08.821Z,45.42
2022-08-27T08:21:15.419Z,50.05
2022-08-27T08:24:23.919Z,43.40
2022-08-27T08:27:29.315Z,44.45
2022-08-27T08:30:34.557Z,42.95
2022-08-27T08:33:40.607Z,41.67
2022-08-27T08:36:46.280Z,34.55
2022-08-27T08:40:01.898Z,39.85
2022-08-27T08:43:09.251Z,39.65
2022-08-27T08:46:17.487Z,39.53
2022-08-27T08:49:30.476Z,38.42
2022-08-27T08:52:42.948Z,35.78
2022-08-27T08:55:52.299Z,36.55
2022-08-27T08:59:00.512Z,38.85
2022-08-27T09:02:09.099Z,44.00
2022-08-27T09:05:16.658Z,49.92
2022-08-27T09:08:36.738Z,47.47
2022-08-27T09:11:53.251Z,40.90
2022-08-27T09:15:01.411Z,40.65
2022-08-27T09:18:14.286Z,34.03
2022-08-27T09:21:28.078Z,29.70
2022-08-27T09:24:40.233Z,34.97
2022-08-27T09:27:48.220Z,30.42
2022-08-27T09:30:53.467Z,24.33
2022-08-27T09:33:59.468Z,25.00
2022-08-27T09:37:07.587Z,24.42
2022-08-27T09:40:23.096Z,29.13
2022-08-27T09:43:32.987Z,26.17
2022-08-27T09:46:38.216Z,28.42
2022-08-27T09:49:43.548Z,31.88
2022-08-27T09:52:55.168Z,23.88
2022-08-27T09:56:01.708Z,25.05
2022-08-27T09:59:10.467Z,25.63
2022-08-27T10:02:20.291Z,22.20
2022-08-27T10:05:28.384Z,27.33
2022-08-27T10:08:38.697Z,21.48
2022-08-27T10:11:47.908Z,24.27
2022-08-27T10:14:57.972Z,23.42
2022-08-27T10:18:05.503Z,16.02
2022-08-27T10:21:15.504Z,12.60
2022-08-27T10:24:25.831Z,16.95
2022-08-27T10:27:33.762Z,17.85
2022-08-27T10:30:51.355Z,26.58
2022-08-27T10:34:04.480Z,19.33
2022-08-27T10:37:19.825Z,17.45
2022-08-27T10:40:26.997Z,14.20
2022-08-27T10:43:49.756Z,19.27
2022-08-27T10:47:06.867Z,16.15
2022-08-27T10:50:17.945Z,22.60
2022-08-27T10:53:28.528Z,20.48
2022-08-27T10:56:36.384Z,20.60
2022-08-27T10:59:46.025Z,19.75
2022-08-27T11:02:56.139Z,18.58
2022-08-27T11:06:02.728Z,20.00
2022-08-27T11:09:09.975Z,20.80
2022-08-27T11:12:18.644Z,17.85
2022-08-27T11:15:25.928Z,29.08
2022-08-27T11:18:38.552Z,21.10
2022-08-27T11:21:46.538Z,16.00
2022-08-27T11:24:56.290Z,18.13
2022-08-27T11:28:02.596Z,19.27
2022-08-27T11:31:12.314Z,18.73
2022-08-27T11:34:23.595Z,17.70
2022-08-27T11:37:38.240Z,24.95
2022-08-27T11:40:52.854Z,17.13
2022-08-27T11:43:58.249Z,19.10
2022-08-27T11:47:12.566Z,17.13
2022-08-27T11:50:22.747Z,20.15
2022-08-27T11:53:29.119Z,23.15
2022-08-27T11:56:45.563Z,16.85
2022-08-27T11:59:50.744Z,24.48
2022-08-27T12:03:03.022Z,21.58
2022-08-27T12:06:21.089Z,18.27
2022-08-27T12:09:26.961Z,20.13
2022-08-27T12:12:36.934Z,24.23
2022-08-27T12:15:57.089Z,20.35
2022-08-27T12:19:07.226Z,22.70
2022-08-27T12:22:29.783Z,27.45
2022-08-27T12:25:37.760Z,21.58
2022-08-27T12:28:42.991Z,33.63
2022-08-27T12:31:49.777Z,20.55
2022-08-27T12:34:59.801Z,28.58
2022-08-27T12:38:12.361Z,29.40
2022-08-27T12:41:32.313Z,28.33
2022-08-27T12:44:49.538Z,23.25
2022-08-27T12:47:55.933Z,24.45
2022-08-27T12:51:03.127Z,21.38
2022-08-27T12:57:20.603Z,25.73
2022-08-27T13:00:27.001Z,17.38
2022-08-27T13:03:35.843Z,17.60
2022-08-27T13:06:46.998Z,22.25
2022-08-27T13:09:56.859Z,21.25
2022-08-27T13:13:12.271Z,19.52
2022-08-27T13:16:20.178Z,20.80
2022-08-27T13:19:27.423Z,28.98
2022-08-27T13:25:38.414Z,20.05
2022-08-27T13:28:46.823Z,16.58
2022-08-27T13:31:52.326Z,17.17
2022-08-27T13:34:57.928Z,18.25
2022-08-27T13:38:04.426Z,19.88
2022-08-27T13:41:10.656Z,16.88
2022-08-27T13:44:22.143Z,22.85
2022-08-27T13:47:28.828Z,17.30
2022-08-27T13:50:34.699Z,18.38
2022-08-27T13:53:52.803Z,18.50
2022-08-27T13:57:04.793Z,23.30
2022-08-27T14:00:18.590Z,29.10
2022-08-27T14:03:34.526Z,26.08
2022-08-27T14:06:43.304Z,23.10
2022-08-27T14:09:54.337Z,20.17
2022-08-27T14:13:01.416Z,18.48
2022-08-27T14:16:17.086Z,27.50
2022-08-27T14:19:28.531Z,20.00
2022-08-27T14:22:40.184Z,31.05
2022-08-27T14:25:45.511Z,24.00
2022-08-27T14:28:50.889Z,24.73
2022-08-27T14:31:58.806Z,22.05
2022-08-27T14:35:04.064Z,26.42
2022-08-27T14:38:14.781Z,26.40
2022-08-27T14:41:21.654Z,25.58
2022-08-27T14:44:27.860Z,25.27
2022-08-27T14:47:36.718Z,31.77
2022-08-27T14:50:42.501Z,24.83
2022-08-27T14:53:47.851Z,25.33
2022-08-27T14:56:54.511Z,29.25
2022-08-27T14:59:59.767Z,25.20
2022-08-27T15:03:07.975Z,35.53
2022-08-27T15:06:13.370Z,33.20
2022-08-27T15:09:19.634Z,27.75
2022-08-27T15:12:26.389Z,25.02
2022-08-27T15:15:32.246Z,25.27
2022-08-27T15:18:40.303Z,32.03
2022-08-27T15:21:47.546Z,28.52
2022-08-27T15:24:54.644Z,31.60
2022-08-27T15:27:59.888Z,34.08
2022-08-27T15:31:04.999Z,36.00
2022-08-27T15:34:13.243Z,34.28
2022-08-27T15:37:18.364Z,37.65
2022-08-27T15:40:24.290Z,33.78
2022-08-27T15:43:29.723Z,31.50
2022-08-27T15:46:34.876Z,32.83
2022-08-27T15:49:43.747Z,30.80
2022-08-27T15:52:49.215Z,33.72
2022-08-27T15:55:54.497Z,33.65
2022-08-27T15:58:59.612Z,34.47
2022-08-27T16:02:05.299Z,25.35
2022-08-27T16:05:13.356Z,29.00
2022-08-27T16:08:18.602Z,32.28
2022-08-27T16:11:24.036Z,26.75
2022-08-27T16:14:29.406Z,30.92
2022-08-27T16:17:34.603Z,28.85
2022-08-27T16:20:43.937Z,46.97
2022-08-27T16:23:49.264Z,34.55
2022-08-27T16:26:54.568Z,27.83
2022-08-27T16:29:59.786Z,29.55
2022-08-27T16:33:04.821Z,22.25
2022-08-27T16:36:13.316Z,27.08
2022-08-27T16:39:18.333Z,31.77
2022-08-27T16:42:23.806Z,35.92
2022-08-27T16:45:28.876Z,32.72
2022-08-27T16:48:46.552Z,31.80
2022-08-27T16:51:54.216Z,29.00
2022-08-27T16:55:00.910Z,27.65
2022-08-27T16:58:05.955Z,32.08
2022-08-27T17:01:12.557Z,34.00
2022-08-27T17:04:26.551Z,41.55
2022-08-27T17:07:38.144Z,34.67
2022-08-27T17:10:46.770Z,43.80
2022-08-27T17:13:53.129Z,41.47
2022-08-27T17:16:58.317Z,41.97
2022-08-27T17:20:03.452Z,47.15
2022-08-27T17:23:23.469Z,45.10
2022-08-27T17:26:28.962Z,49.00
2022-08-27T17:29:33.951Z,48.50
2022-08-27T17:32:40.304Z,43.08
2022-08-27T17:35:45.583Z,41.33
2022-08-27T17:38:54.058Z,45.63
2022-08-27T17:41:59.847Z,52.42
2022-08-27T17:45:05.355Z,49.78
2022-08-27T17:48:14.175Z,51.17
2022-08-27T17:51:24.628Z,49.47
2022-08-27T17:54:36.945Z,50.15
2022-08-27T17:57:42.255Z,49.58
2022-08-27T18:00:47.402Z,46.95
2022-08-27T18:03:52.774Z,54.40
2022-08-27T18:06:57.955Z,44.72
2022-08-27T18:10:06.073Z,48.13
2022-08-27T18:13:13.430Z,92.50
2022-08-27T18:16:18.891Z,57.67
2022-08-27T18:19:24.350Z,65.00
2022-08-27T18:22:29.370Z,65.38
2022-08-27T18:25:42.769Z,69.78
2022-08-27T18:31:53.183Z,60.13
2022-08-27T18:34:59.217Z,74.57
2022-08-27T18:38:04.521Z,71.05
2022-08-27T18:41:12.562Z,87.18
2022-08-27T18:44:18.127Z,76.38
2022-08-27T18:47:23.456Z,78.40
2022-08-27T18:50:28.976Z,68.80
2022-08-27T18:53:35.320Z,73.25
2022-08-27T18:56:43.086Z,72.10
2022-08-27T18:59:48.336Z,68.07
2022-08-27T19:02:54.333Z,63.72
2022-08-27T19:06:00.588Z,70.88
2022-08-27T19:09:06.220Z,71.97
2022-08-27T19:12:15.459Z,66.90
2022-08-27T19:15:21.065Z,62.30
2022-08-27T19:18:27.633Z,67.30
2022-08-27T19:21:32.964Z,65.00
2022-08-27T19:24:40.013Z,64.90
2022-08-27T19:27:48.344Z,82.43
2022-08-27T19:34:00.441Z,75.43
2022-08-27T19:37:07.263Z,75.80
2022-08-27T19:40:12.755Z,66.07
2022-08-27T19:43:22.095Z,74.25
2022-08-27T19:46:27.972Z,71.97
2022-08-27T19:49:33.579Z,76.35
2022-08-27T19:52:38.854Z,72.15
2022-08-27T19:55:46.198Z,70.43
2022-08-27T19:58:57.328Z,78.50
2022-08-27T20:02:05.417Z,72.50
2022-08-27T20:05:19.160Z,78.65
2022-08-27T20:08:25.119Z,80.28
2022-08-27T20:11:30.123Z,80.82
2022-08-27T20:14:38.039Z,74.90
2022-08-27T20:17:46.650Z,73.03
2022-08-27T20:20:56.809Z,71.53
2022-08-27T20:24:02.157Z,70.47
2022-08-27T20:27:07.591Z,75.13
2022-08-27T20:30:16.217Z,69.95
2022-08-27T20:33:21.288Z,71.22
2022-08-27T20:36:27.082Z,79.55
2022-08-27T20:39:32.470Z,72.03
2022-08-27T20:42:37.524Z,74.20
2022-08-27T20:45:45.589Z,76.75
2022-08-27T20:48:50.911Z,74.75
2022-08-27T20:52:03.262Z,82.93
2022-08-27T20:55:12.288Z,77.85
2022-08-27T20:58:29.890Z,82.40
2022-08-27T21:01:37.695Z,73.43
2022-08-27T21:04:43.634Z,83.70
2022-08-27T21:07:50.975Z,88.32
2022-08-27T21:10:57.069Z,80.53
2022-08-27T21:14:02.279Z,82.00
2022-08-27T21:17:10.115Z,72.22
2022-08-27T21:20:16.912Z,78.47
2022-08-27T21:23:22.232Z,76.97
2022-08-27T21:26:27.515Z,79.18
2022-08-27T21:29:34.038Z,79.05
2022-08-27T21:32:42.012Z,76.53
2022-08-27T21:35:47.283Z,74.93
2022-08-27T21:38:52.734Z,81.10
2022-08-27T21:41:57.876Z,79.13
2022-08-27T21:45:03.206Z,83.38
2022-08-27T21:48:12.200Z,79.18
2022-08-27T21:51:24.452Z,82.95
2022-08-27T21:54:30.326Z,87.95
2022-08-27T21:57:35.663Z,81.80
2022-08-27T22:00:45.620Z,80.35
2022-08-27T22:03:53.394Z,91.40
2022-08-27T22:06:58.433Z,83.72
2022-08-27T22:10:03.915Z,89.05
2022-08-27T22:13:09.526Z,81.85
2022-08-27T22:16:14.632Z,88.32
2022-08-27T22:19:22.791Z,88.30
2022-08-27T22:28:40.889Z,86.20
2022-08-27T22:31:46.420Z,86.72
2022-08-27T22:34:56.579Z,93.55
2022-08-27T22:38:01.968Z,86.82
2022-08-27T22:41:08.270Z,88.22
2022-08-27T22:44:13.861Z,92.32
2022-08-27T22:47:19.000Z,90.50
2022-08-27T22:50:26.889Z,85.93
2022-08-27T22:53:32.029Z,88.28
2022-08-27T22:56:37.491Z,94.35
2022-08-27T22:59:42.522Z,88.57
2022-08-27T23:02:48.623Z,98.95
2022-08-27T23:05:56.638Z,90.35
2022-08-27T23:09:02.178Z,94.63
2022-08-27T23:12:09.232Z,91.05
2022-08-27T23:15:14.805Z,88.75
2022-08-27T23:18:19.803Z,93.68
2022-08-27T23:21:28.091Z,88.57
2022-08-27T23:24:33.374Z,87.97
2022-08-27T23:27:35.969Z,93.63
2022-08-27T23:30:41.098Z,84.88
2022-08-27T23:33:46.423Z,82.72
2022-08-27T23:36:54.112Z,89.60
2022-08-27T23:39:59.327Z,94.28
2022-08-27T23:43:05.004Z,92.93
2022-08-27T23:46:10.786Z,95.97
2022-08-27T23:49:16.331Z,88.50
2022-08-27T23:52:24.176Z,94.43
2022-08-27T23:55:29.510Z,81.07
2022-08-27T23:58:34.918Z,84.45
